createdAt,value
2023-03-25T00:00:06.684Z,25.2
2023-03-25T00:05:59.572Z,24.9
2023-03-25T00:11:35.763Z,24.8
2023-03-25T00:16:56.837Z,28.8
2023-03-25T00:27:53.697Z,26.4
2023-03-25T00:33:30.290Z,26
2023-03-25T00:39:22.628Z,25.8
2023-03-25T00:44:58.785Z,25.6
2023-03-25T00:50:36.295Z,25.3
2023-03-25T00:56:37.760Z,25.1
2023-03-25T01:02:29.615Z,24.8
2023-03-25T01:08:07.410Z,27.9
2023-03-25T01:13:59.002Z,29.8
2023-03-25T01:19:20.462Z,26.6
2023-03-25T01:25:12.661Z,26.1
2023-03-25T01:31:04.956Z,25.9
2023-03-25T01:36:26.061Z,25.6
2023-03-25T01:42:28.200Z,25.4
2023-03-25T01:47:34.050Z,25.1
2023-03-25T01:53:25.322Z,24.9
2023-03-25T01:59:01.248Z,26.1
2023-03-25T02:04:38.417Z,29.1
2023-03-25T02:10:29.913Z,27.3
2023-03-25T02:16:06.235Z,26.3
2023-03-25T02:21:58.417Z,24.6
2023-03-25T02:27:49.451Z,24.1
2023-03-25T02:33:25.590Z,23.4
2023-03-25T02:39:01.847Z,23
2023-03-25T02:44:38.171Z,22.8
2023-03-25T02:50:30.112Z,24.3
2023-03-25T02:56:21.449Z,28.7
2023-03-25T03:02:12.866Z,27.4
2023-03-25T03:07:49.378Z,26.3
2023-03-25T03:13:25.067Z,24.6
2023-03-25T03:19:01.732Z,24.2
2023-03-25T03:24:53.526Z,23.4
2023-03-25T03:30:45.489Z,23.1
2023-03-25T03:37:23.398Z,22.8
2023-03-25T03:42:59.720Z,25.3
2023-03-25T03:48:51.360Z,28.9
2023-03-25T03:54:27.467Z,27.1
2023-03-25T04:00:19.849Z,26.2
2023-03-25T04:05:56.396Z,24.5
2023-03-25T04:11:47.270Z,24.1
2023-03-25T04:17:26.197Z,23.4
2023-03-25T04:23:02.481Z,23.1
2023-03-25T04:28:38.415Z,22.8
2023-03-25T04:34:30.517Z,22.4
2023-03-25T04:40:21.986Z,22.3
2023-03-25T04:45:42.712Z,26
2023-03-25T04:51:34.816Z,29
2023-03-25T04:57:27.094Z,27.1
2023-03-25T05:03:18.540Z,26.2
2023-03-25T05:09:10.705Z,24.4
2023-03-25T05:15:01.348Z,23.9
2023-03-25T05:20:38.122Z,23.3
2023-03-25T05:26:29.818Z,22.9
2023-03-25T05:32:20.884Z,22.6
2023-03-25T05:38:14.110Z,22.5
2023-03-25T05:43:51.529Z,27.3
2023-03-25T05:49:43.247Z,30.1
2023-03-25T05:55:38.651Z,26.7
2023-03-25T06:01:47.511Z,26.1
2023-03-25T06:07:38.544Z,25.8
2023-03-25T06:13:28.705Z,25.6
2023-03-25T06:19:21.259Z,25.3
2023-03-25T06:25:13.041Z,25
2023-03-25T06:31:03.708Z,24.7
2023-03-25T06:37:17.151Z,28.6
2023-03-25T06:42:52.907Z,28
2023-03-25T06:48:29.209Z,26.4
2023-03-25T06:54:20.875Z,26.1
2023-03-25T07:00:12.783Z,25.9
2023-03-25T07:06:04.009Z,25.6
2023-03-25T07:11:57.658Z,25.3
2023-03-25T07:17:53.243Z,25
2023-03-25T07:23:47.407Z,26.6
2023-03-25T07:29:39.814Z,30.5
2023-03-25T07:35:32.394Z,26.9
2023-03-25T07:41:24.961Z,26.2
2023-03-25T07:47:23.947Z,26
2023-03-25T07:53:15.581Z,25.7
2023-03-25T07:59:08.465Z,25.4
2023-03-25T08:05:04.941Z,25.1
2023-03-25T08:10:57.233Z,24.5
2023-03-25T08:16:51.630Z,30
2023-03-25T08:22:43.481Z,27
2023-03-25T08:28:22.515Z,25.9
2023-03-25T08:34:14.799Z,25.6
2023-03-25T08:40:06.639Z,25.3
2023-03-25T08:45:42.386Z,28.5
2023-03-25T08:51:17.758Z,28
2023-03-25T08:56:38.579Z,25.8
2023-03-25T09:02:33.728Z,25.4
2023-03-25T09:08:33.878Z,25.2
2023-03-25T09:14:37.652Z,25.4
2023-03-25T09:20:31.345Z,29.5
2023-03-25T09:26:23.800Z,26.1
2023-03-25T09:32:16.425Z,25.4
2023-03-25T09:37:53.333Z,25.3
2023-03-25T09:43:44.777Z,24.8
2023-03-25T09:49:44.242Z,30.9
2023-03-25T09:55:36.607Z,26.4
2023-03-25T10:01:28.998Z,25.8
2023-03-25T10:06:50.899Z,25.5
2023-03-25T10:12:27.284Z,25.4
2023-03-25T10:18:21.641Z,30.4
2023-03-25T10:24:13.687Z,26.8
2023-03-25T10:30:05.003Z,25.9
2023-03-25T10:35:58.598Z,25.6
2023-03-25T10:41:50.715Z,25.4
2023-03-25T10:47:42.444Z,25.2
2023-03-25T10:53:34.134Z,25
2023-03-25T10:59:25.851Z,24.8
2023-03-25T11:05:18.914Z,24.5
2023-03-25T11:11:23.777Z,24.3
2023-03-25T11:17:13.887Z,24.1
2023-03-25T11:23:08.685Z,23.8
2023-03-25T11:29:00.667Z,23.6
2023-03-25T11:34:52.805Z,23.4
2023-03-25T11:40:45.213Z,23.3
2023-03-25T11:46:21.275Z,23.1
2023-03-25T11:51:42.364Z,22.9
2023-03-25T11:57:34.460Z,22.8
2023-03-25T12:02:55.418Z,22.6
2023-03-25T12:08:32.794Z,22.6
2023-03-25T12:14:26.963Z,22.4
2023-03-25T12:20:19.191Z,22.3
2023-03-25T12:26:11.595Z,22.2
2023-03-25T12:31:48.470Z,22.1
2023-03-25T12:37:40.338Z,22
2023-03-25T12:43:49.219Z,21.9
2023-03-25T12:49:25.949Z,21.8
2023-03-25T12:54:49.654Z,21.7
2023-03-25T13:00:41.846Z,21.7
2023-03-25T13:06:35.462Z,21.6
2023-03-25T13:12:26.899Z,21.5
2023-03-25T13:18:12.034Z,21.4
2023-03-25T13:24:09.520Z,21.4
2023-03-25T13:30:01.768Z,21.3
2023-03-25T13:35:39.586Z,21.3
2023-03-25T13:41:31.928Z,21.2
2023-03-25T13:52:48.793Z,21.1
2023-03-25T13:58:41.973Z,21
2023-03-25T14:04:36.668Z,21
2023-03-25T14:10:29.267Z,20.9
2023-03-25T14:16:21.636Z,20.9
2023-03-25T14:21:47.230Z,20.8
2023-03-25T14:27:23.487Z,20.9
2023-03-25T14:33:15.803Z,20.8
2023-03-25T14:38:52.968Z,20.8
2023-03-25T14:44:58.106Z,20.8
2023-03-25T14:50:46.972Z,20.8
2023-03-25T14:56:25.768Z,20.8
2023-03-25T15:02:21.466Z,20.7
2023-03-25T15:08:13.760Z,20.7
2023-03-25T15:13:49.666Z,20.7
2023-03-25T15:19:41.582Z,20.6
2023-03-25T15:25:33.355Z,20.6
2023-03-25T15:31:25.639Z,20.6
2023-03-25T15:37:17.583Z,20.6
2023-03-25T15:43:22.651Z,20.6
2023-03-25T15:49:24.848Z,20.6
2023-03-25T15:55:21.894Z,20.6
2023-03-25T16:01:13.039Z,20.6
2023-03-25T16:07:04.759Z,20.5
2023-03-25T16:12:56.217Z,20.5
2023-03-25T16:18:32.944Z,20.5
2023-03-25T16:24:08.710Z,20.5
2023-03-25T16:29:47.675Z,20.4
2023-03-25T16:35:26.366Z,20.4
2023-03-25T16:41:02.091Z,20.3
2023-03-25T16:46:38.781Z,20.4
2023-03-25T16:52:16.223Z,20.4
2023-03-25T16:58:07.519Z,20.4
2023-03-25T17:04:00.742Z,20.3
2023-03-25T17:09:52.716Z,20.3
2023-03-25T17:15:28.291Z,20.3
2023-03-25T17:21:08.922Z,20.3
2023-03-25T17:27:01.028Z,20.3
2023-03-25T17:32:52.168Z,20.3
2023-03-25T17:38:30.569Z,20.3
2023-03-25T17:44:22.984Z,20.3
2023-03-25T17:50:15.329Z,20.3
2023-03-25T17:56:06.677Z,20.3
2023-03-25T18:01:59.298Z,20.3
2023-03-25T18:07:50.565Z,20.3
2023-03-25T18:13:41.854Z,20.3
2023-03-25T18:19:18.613Z,20.3
2023-03-25T18:25:07.897Z,20.3
2023-03-25T18:31:13.857Z,20.3
2023-03-25T18:37:05.887Z,20.2
2023-03-25T18:42:41.550Z,20.3
2023-03-25T18:48:33.490Z,20.2
2023-03-25T18:54:09.075Z,20.2
2023-03-25T18:59:59.757Z,20.2
2023-03-25T19:06:06.031Z,20.2
2023-03-25T19:12:10.146Z,20.1
2023-03-25T19:18:09.708Z,20.2
2023-03-25T19:24:01.371Z,20.2
2023-03-25T19:29:52.914Z,20.2
2023-03-25T19:35:44.750Z,20.1
2023-03-25T19:41:22.477Z,20.1
2023-03-25T19:47:00.005Z,20.1
2023-03-25T19:52:50.708Z,20.1
2023-03-25T19:58:42.645Z,20.1
2023-03-25T20:04:19.975Z,20.1
2023-03-25T20:10:20.706Z,20.1
2023-03-25T20:15:57.176Z,20.1
2023-03-25T20:21:33.951Z,20.1
2023-03-25T20:27:09.001Z,20.1
2023-03-25T20:32:56.385Z,20.1
2023-03-25T20:38:56.359Z,20.1
2023-03-25T20:44:55.500Z,20.1
2023-03-25T20:50:47.410Z,20.1
2023-03-25T20:56:39.819Z,20.1
2023-03-25T21:02:16.610Z,20.1
2023-03-25T21:08:18.683Z,20.1
2023-03-25T21:14:22.285Z,20.1
2023-03-25T21:20:14.325Z,19.6
2023-03-25T21:25:53.486Z,27.4
2023-03-25T21:31:47.216Z,30.4
2023-03-25T21:37:33.207Z,27.1
2023-03-25T21:43:49.488Z,26.1
2023-03-25T21:49:41.841Z,25.8
2023-03-25T21:55:20.349Z,25.6
2023-03-25T22:00:41.722Z,25.3
2023-03-25T22:06:18.987Z,25.1
2023-03-25T22:12:09.619Z,24.7
2023-03-25T22:18:02.008Z,28.9
2023-03-25T22:23:53.931Z,29.3
2023-03-25T22:29:32.501Z,26.5
2023-03-25T22:35:24.085Z,26
2023-03-25T22:41:00.577Z,25.8
2023-03-25T22:46:52.628Z,25.6
2023-03-25T22:52:44.678Z,25.3
2023-03-25T22:58:37.924Z,25
2023-03-25T23:04:14.252Z,24.1
2023-03-25T23:10:00.928Z,28.9
2023-03-25T23:15:38.133Z,28.7
2023-03-25T23:21:15.652Z,26.8
2023-03-25T23:27:10.222Z,26.3
2023-03-25T23:33:02.279Z,26.1
2023-03-25T23:38:38.482Z,25.8
2023-03-25T23:44:31.221Z,25.4
2023-03-25T23:50:22.855Z,25.2
2023-03-25T23:55:27.624Z,26
